Time;durP1;ratioP1;P1;durP2;ratioP2;P2;SDS_P1;SDS_P2;PMS_P1;PMS_P2;Temp;Humidity;BMP_temperature;BMP_pressure;BME280_temperature;BME280_humidity;BME280_pressure;Samples;Min_cycle;Max_cycle;Signal;HPM_P1;HPM_P2
2024/04/04 00:03:37;;;;;;;3.50;2.10;;;;;;;13.58;65.24;98565.50;239047;179;137743;-57
2024/04/04 00:08:40;;;;;;;7.10;2.30;;;;;;;13.62;65.30;98557.48;239041;180;153252;-58
2024/04/04 00:13:44;;;;;;;6.60;2.80;;;;;;;13.69;65.35;98553.58;239075;180;138001;-57
2024/04/04 00:18:47;;;;;;;4.50;2.40;;;;;;;13.73;65.26;98553.91;239025;177;138090;-55
2024/04/04 00:23:50;;;;;;;5.00;2.40;;;;;;;13.74;65.21;98548.46;239041;180;153056;-57
2024/04/04 00:28:54;;;;;;;6.40;2.80;;;;;;;13.68;65.49;98549.55;238966;180;137670;-56
2024/04/04 00:33:58;;;;;;;6.00;2.80;;;;;;;13.61;65.65;98544.73;239001;180;137475;-58
2024/04/04 00:39:01;;;;;;;6.90;2.70;;;;;;;13.57;65.77;98549.02;238901;180;153099;-58
2024/04/04 00:44:04;;;;;;;6.50;2.70;;;;;;;13.51;65.77;98548.27;238981;180;139426;-55
2024/04/04 00:49:07;;;;;;;10.40;2.70;;;;;;;13.46;66.05;98554.88;239034;180;137033;-56
2024/04/04 00:54:10;;;;;;;5.20;2.50;;;;;;;13.40;66.26;98556.31;238957;180;154109;-55
2024/04/04 00:59:13;;;;;;;4.00;2.30;;;;;;;13.33;66.52;98557.56;239147;180;137573;-56
2024/04/04 01:04:16;;;;;;;6.10;3.00;;;;;;;13.30;66.78;98555.84;239025;180;137163;-56
2024/04/04 01:09:19;;;;;;;7.00;2.70;;;;;;;13.27;66.96;98552.89;239015;180;153179;-56
2024/04/04 01:14:22;;;;;;;7.70;3.10;;;;;;;13.24;67.05;98548.98;238928;180;143522;-57
2024/04/04 01:19:25;;;;;;;6.50;2.80;;;;;;;13.24;67.15;98546.55;239098;180;137802;-56
2024/04/04 01:24:28;;;;;;;4.30;2.50;;;;;;;13.24;67.24;98544.73;238898;176;154378;-57
2024/04/04 01:29:31;;;;;;;5.40;2.80;;;;;;;13.29;67.25;98550.27;238892;180;138300;-57
2024/04/04 01:34:34;;;;;;;5.40;3.00;;;;;;;13.30;67.28;98548.04;238829;178;137451;-56
2024/04/04 01:39:37;;;;;;;9.60;3.20;;;;;;;13.28;67.54;98549.45;239008;180;153128;-56
2024/04/04 01:44:40;;;;;;;6.90;3.20;;;;;;;13.30;67.52;98550.88;238952;180;137701;-56
2024/04/04 01:49:43;;;;;;;8.20;3.00;;;;;;;13.32;67.60;98544.46;239001;180;137824;-57
2024/04/04 01:54:46;;;;;;;6.90;3.30;;;;;;;13.34;67.82;98549.85;238915;180;153695;-57
2024/04/04 01:59:52;;;;;;;7.40;3.10;;;;;;;13.34;67.84;98550.66;239044;180;138332;-55
2024/04/04 02:04:55;;;;;;;6.90;3.40;;;;;;;13.31;68.07;98554.13;239036;180;137703;-56
2024/04/04 02:09:58;;;;;;;7.30;3.40;;;;;;;13.30;68.17;98554.82;238948;177;153070;-57
2024/04/04 02:15:01;;;;;;;6.80;3.20;;;;;;;13.30;67.99;98552.85;238967;180;138890;-57
2024/04/04 02:20:10;;;;;;;8.90;3.20;;;;;;;13.31;67.63;98554.69;239000;180;138004;-55
2024/04/04 02:25:13;;;;;;;6.50;3.00;;;;;;;13.33;67.63;98552.64;239029;180;154000;-54
2024/04/04 02:30:16;;;;;;;8.80;3.10;;;;;;;13.34;67.54;98555.73;238967;176;138090;-56
2024/04/04 02:35:19;;;;;;;6.70;2.90;;;;;;;13.35;67.16;98552.56;238937;180;138850;-55
2024/04/04 02:40:22;;;;;;;18.00;3.80;;;;;;;13.39;67.09;98547.58;238883;177;153875;-54
2024/04/04 02:45:25;;;;;;;12.00;3.60;;;;;;;13.47;67.28;98542.90;238423;180;139181;-56
2024/04/04 02:50:28;;;;;;;30.10;4.90;;;;;;;13.46;66.79;98546.64;239012;180;137774;-54
2024/04/04 02:55:33;;;;;;;21.30;4.40;;;;;;;13.45;66.69;98548.23;239017;180;153256;-55
2024/04/04 03:00:36;;;;;;;19.10;4.10;;;;;;;13.38;67.17;98552.69;239004;180;137823;-55
2024/04/04 03:05:41;;;;;;;15.60;3.80;;;;;;;13.34;67.14;98546.48;239035;180;137013;-55
2024/04/04 03:10:43;;;;;;;20.00;5.00;;;;;;;13.30;67.85;98544.48;239066;177;153792;-55
2024/04/04 03:15:56;;;;;;;19.20;5.00;;;;;;;13.23;68.49;98543.39;239080;180;137772;-55
2024/04/04 03:21:00;;;;;;;13.20;4.60;;;;;;;13.18;69.09;98545.77;238913;180;137927;-56
2024/04/04 03:26:03;;;;;;;16.70;4.70;;;;;;;13.15;69.33;98545.48;239024;177;153220;-56
2024/04/04 03:31:07;;;;;;;26.10;5.90;;;;;;;13.13;69.58;98544.39;239016;180;137690;-56
2024/04/04 03:36:10;;;;;;;24.00;5.50;;;;;;;13.15;69.78;98550.77;239028;180;139655;-56
2024/04/04 03:41:13;;;;;;;22.20;5.20;;;;;;;13.20;69.78;98551.77;238971;179;153086;-55
2024/04/04 03:46:16;;;;;;;14.60;4.80;;;;;;;13.18;69.80;98554.48;239006;180;137798;-54
2024/04/04 03:51:19;;;;;;;27.20;5.80;;;;;;;13.13;69.96;98559.70;238965;180;138217;-56
2024/04/04 03:56:22;;;;;;;17.20;4.70;;;;;;;13.09;70.17;98568.20;238884;180;152965;-56
2024/04/04 04:01:25;;;;;;;15.20;5.00;;;;;;;13.03;70.32;98570.43;239041;180;137502;-55
2024/04/04 04:06:28;;;;;;;85.10;61.60;;;;;;;13.00;70.50;98570.31;239100;179;137922;-56
2024/04/04 04:11:31;;;;;;;21.30;6.90;;;;;;;13.03;70.79;98570.45;238933;180;153147;-55
2024/04/04 04:16:34;;;;;;;80.90;54.80;;;;;;;13.08;70.67;98572.59;239090;180;138909;-56
2024/04/04 04:21:37;;;;;;;24.00;5.90;;;;;;;13.18;70.73;98571.21;238885;180;139785;-54
2024/04/04 04:26:40;;;;;;;25.10;5.50;;;;;;;13.30;70.45;98575.13;238988;180;152929;-54
2024/04/04 04:31:44;;;;;;;24.10;5.30;;;;;;;13.28;70.30;98580.04;238755;180;138639;-56
2024/04/04 04:36:55;;;;;;;26.10;5.00;;;;;;;13.31;70.23;98574.47;238961;180;138310;-56
2024/04/04 04:41:58;;;;;;;22.60;5.60;;;;;;;13.29;70.38;98577.87;238904;178;154086;-54
2024/04/04 04:47:01;;;;;;;26.20;5.10;;;;;;;13.25;70.40;98582.05;238864;180;138020;-54
2024/04/04 04:52:05;;;;;;;174.90;140.00;;;;;;;13.25;70.67;98586.75;238943;175;137728;-57
2024/04/04 04:57:07;;;;;;;20.60;7.50;;;;;;;13.30;70.79;98589.23;239076;180;153776;-58
2024/04/04 05:02:12;;;;;;;24.40;5.10;;;;;;;13.38;70.62;98590.33;238921;180;138780;-54
2024/04/04 05:07:15;;;;;;;17.60;5.00;;;;;;;13.42;70.52;98593.55;238840;181;138094;-55
2024/04/04 05:12:18;;;;;;;13.60;5.00;;;;;;;13.49;70.55;98597.23;238879;173;153415;-56
2024/04/04 05:17:21;;;;;;;16.70;5.20;;;;;;;13.57;70.33;98600.16;239060;180;137898;-56
2024/04/04 05:22:26;;;;;;;207.30;149.90;;;;;;;13.59;70.18;98607.33;239095;180;140619;-56
2024/04/04 05:27:29;;;;;;;21.50;14.00;;;;;;;13.64;70.52;98605.34;238748;177;153529;-55
2024/04/04 05:32:32;;;;;;;16.50;4.60;;;;;;;13.64;70.12;98606.00;239038;180;137759;-56
2024/04/04 05:37:36;;;;;;;17.30;4.90;;;;;;;13.62;69.88;98609.43;238397;180;137722;-54
2024/04/04 05:42:39;;;;;;;12.90;4.50;;;;;;;13.57;69.83;98616.08;238974;180;153926;-56
2024/04/04 05:47:42;;;;;;;11.00;4.10;;;;;;;13.55;69.91;98614.79;238595;180;138720;-54
2024/04/04 05:52:45;;;;;;;9.80;3.40;;;;;;;13.58;68.39;98610.23;238973;180;138235;-57
2024/04/04 05:57:49;;;;;;;9.90;3.60;;;;;;;13.63;66.97;98613.98;238968;180;153651;-56
2024/04/04 06:02:52;;;;;;;8.10;3.40;;;;;;;13.67;65.86;98617.16;238926;180;138120;-54
2024/04/04 06:07:55;;;;;;;6.10;2.90;;;;;;;13.68;64.95;98622.29;239060;180;138057;-57
2024/04/04 06:12:59;;;;;;;14.80;3.80;;;;;;;13.63;64.64;98629.44;238918;180;154683;-56
2024/04/04 06:18:02;;;;;;;8.30;4.10;;;;;;;13.66;64.77;98631.01;238966;180;137673;-57
2024/04/04 06:23:05;;;;;;;8.10;3.40;;;;;;;13.71;64.29;98633.03;238907;180;137151;-54
2024/04/04 06:28:08;;;;;;;7.80;3.30;;;;;;;13.79;64.08;98637.90;238968;180;153248;-56
2024/04/04 06:33:11;;;;;;;12.20;3.10;;;;;;;13.90;63.64;98633.11;238884;178;137584;-56
2024/04/04 06:38:14;;;;;;;7.30;3.20;;;;;;;14.04;63.32;98627.16;238958;177;138457;-57
2024/04/04 06:43:17;;;;;;;9.00;3.50;;;;;;;14.11;62.68;98628.71;238902;180;153625;-55
2024/04/04 06:48:20;;;;;;;11.40;3.20;;;;;;;14.21;62.31;98628.63;238883;180;140168;-55
2024/04/04 06:53:23;;;;;;;8.60;3.10;;;;;;;14.30;61.87;98624.42;238961;180;138463;-57
2024/04/04 06:58:26;;;;;;;9.30;2.80;;;;;;;14.38;61.49;98625.34;238889;180;153831;-55
2024/04/04 07:03:29;;;;;;;5.50;2.90;;;;;;;14.44;61.03;98631.80;238848;180;137324;-55
2024/04/04 07:08:35;;;;;;;4.20;2.60;;;;;;;14.52;60.71;98638.90;238848;180;138671;-56
2024/04/04 07:13:39;;;;;;;;;;;;;;;14.60;60.84;98643.22;238414;180;152951;-56
2024/04/04 07:18:42;;;;;;;7.50;2.60;;;;;;;14.70;59.94;98644.50;239119;180;136828;-56
2024/04/04 07:23:45;;;;;;;6.40;2.70;;;;;;;14.84;58.94;98644.53;239059;180;137381;-56
2024/04/04 07:28:48;;;;;;;8.00;2.40;;;;;;;14.94;58.53;98642.80;238871;180;153116;-56
2024/04/04 07:33:51;;;;;;;5.00;2.20;;;;;;;15.09;58.15;98643.64;238812;181;142142;-56
2024/04/04 07:38:54;;;;;;;7.10;1.80;;;;;;;15.21;56.65;98651.50;238997;180;138064;-56
2024/04/04 07:43:59;;;;;;;3.30;1.80;;;;;;;15.21;55.62;98651.14;238900;178;152925;-55
2024/04/04 07:49:03;;;;;;;3.20;1.80;;;;;;;15.33;55.68;98654.17;238797;180;138568;-54
2024/04/04 07:54:06;;;;;;;3.40;1.30;;;;;;;15.46;54.86;98653.95;239027;180;140616;-56
2024/04/04 07:59:09;;;;;;;3.90;1.30;;;;;;;15.57;53.02;98657.61;238933;180;152269;-55
2024/04/04 08:04:12;;;;;;;1.90;1.00;;;;;;;15.67;52.16;98651.38;238867;180;138000;-55
2024/04/04 08:09:15;;;;;;;3.20;1.30;;;;;;;15.74;51.86;98643.67;238947;180;137594;-55
2024/04/04 08:14:18;;;;;;;5.30;1.50;;;;;;;15.88;51.80;98644.36;238921;180;154295;-55
2024/04/04 08:19:21;;;;;;;5.80;1.40;;;;;;;15.98;51.34;98640.94;239020;180;137923;-54
2024/04/04 08:24:24;;;;;;;2.70;1.10;;;;;;;16.09;50.34;98641.02;239023;180;138099;-54
2024/04/04 08:29:27;;;;;;;3.20;0.90;;;;;;;16.17;49.45;98644.34;238907;180;153119;-54
2024/04/04 08:34:32;;;;;;;1.40;0.80;;;;;;;16.33;49.54;98635.16;238885;180;137927;-56
2024/04/04 08:39:36;;;;;;;1.80;0.80;;;;;;;16.49;48.33;98631.73;238937;180;137600;-56
2024/04/04 08:44:40;;;;;;;4.40;1.30;;;;;;;16.70;48.13;98630.92;238984;180;153118;-55
2024/04/04 08:49:47;;;;;;;1.90;1.00;;;;;;;16.82;47.75;98630.87;238923;178;138095;-56
2024/04/04 08:54:49;;;;;;;5.40;1.00;;;;;;;16.96;47.72;98626.61;239029;180;137137;-56
2024/04/04 08:59:56;;;;;;;4.50;1.20;;;;;;;17.11;47.14;98629.58;239071;180;154671;-55
2024/04/04 09:05:04;;;;;;;2.80;1.20;;;;;;;16.97;47.21;98629.39;238909;177;137099;-55
2024/04/04 09:10:14;;;;;;;3.30;1.30;;;;;;;16.87;46.88;98631.24;238962;180;137844;-55
2024/04/04 09:15:17;;;;;;;2.60;1.10;;;;;;;16.97;46.92;98625.67;238985;180;152994;-55
2024/04/04 09:20:19;;;;;;;2.50;1.00;;;;;;;17.22;46.49;98630.07;239058;180;137251;-56
2024/04/04 09:25:22;;;;;;;1.60;1.10;;;;;;;17.42;46.28;98627.38;239084;180;137668;-57
2024/04/04 09:30:28;;;;;;;0.90;0.80;;;;;;;17.54;45.44;98632.25;238809;180;153224;-55
2024/04/04 09:35:33;;;;;;;3.00;1.10;;;;;;;17.60;45.20;98630.66;238974;180;238104;-54
2024/04/04 09:40:36;;;;;;;3.20;1.00;;;;;;;17.71;44.83;98628.73;238667;181;139001;-51
2024/04/04 09:45:42;;;;;;;3.00;1.20;;;;;;;17.83;45.02;98628.67;238867;180;152927;-54
2024/04/04 09:50:45;;;;;;;2.10;1.00;;;;;;;17.68;44.65;98631.39;238935;180;139191;-53
2024/04/04 09:55:50;;;;;;;1.10;0.80;;;;;;;17.50;45.27;98639.89;239004;180;137185;-55
2024/04/04 10:00:53;;;;;;;2.70;0.90;;;;;;;17.42;45.24;98641.99;238908;180;153627;-56
2024/04/04 10:05:57;;;;;;;146.40;102.40;;;;;;;17.51;45.69;98643.21;238948;176;138266;-54
2024/04/04 10:11:08;;;;;;;3.70;2.50;;;;;;;17.57;45.60;98644.97;238895;180;137381;-55
2024/04/04 10:16:12;;;;;;;5.10;1.70;;;;;;;17.81;45.72;98648.73;238923;180;153767;-54
2024/04/04 10:21:24;;;;;;;2.10;1.20;;;;;;;17.96;45.54;98649.43;238800;178;137311;-54
2024/04/04 10:26:27;;;;;;;2.10;1.40;;;;;;;18.02;44.43;98652.23;238841;179;137960;-55
2024/04/04 10:31:30;;;;;;;3.20;1.20;;;;;;;17.87;44.94;98652.52;238948;180;154005;-56
2024/04/04 10:36:45;;;;;;;3.20;1.50;;;;;;;17.80;44.88;98652.52;238838;180;137635;-55
2024/04/04 10:41:56;;;;;;;1.80;1.20;;;;;;;17.70;45.30;98651.95;238939;180;138065;-55
2024/04/04 10:46:59;;;;;;;4.60;1.30;;;;;;;17.63;45.43;98653.52;238909;180;153721;-55
2024/04/04 10:52:04;;;;;;;2.40;1.20;;;;;;;17.75;45.88;98650.02;238557;180;138572;-56
2024/04/04 10:57:08;;;;;;;5.20;2.90;;;;;;;17.99;45.16;98656.27;238748;180;137907;-54
2024/04/04 11:02:11;;;;;;;2.40;1.10;;;;;;;18.23;44.22;98648.95;238867;180;154826;-54
2024/04/04 11:07:14;;;;;;;1.90;1.00;;;;;;;18.43;42.80;98655.93;238912;180;137297;-56
2024/04/04 11:12:17;;;;;;;1.00;0.60;;;;;;;18.64;42.63;98646.95;238867;180;138081;-53
2024/04/04 11:17:20;;;;;;;3.60;0.70;;;;;;;18.89;41.64;98651.77;238972;178;153710;-53
2024/04/04 11:22:23;;;;;;;1.30;0.70;;;;;;;18.85;41.53;98650.78;238869;181;137981;-54
2024/04/04 11:27:26;;;;;;;1.50;0.60;;;;;;;18.79;39.97;98655.49;239095;180;137251;-56
2024/04/04 11:32:29;;;;;;;1.90;0.60;;;;;;;18.66;40.24;98648.87;238926;180;153645;-56
2024/04/04 11:37:32;;;;;;;0.60;0.50;;;;;;;18.62;40.04;98653.77;239020;180;137930;-55
2024/04/04 11:42:35;;;;;;;1.80;0.70;;;;;;;18.46;40.51;98662.42;238995;180;137828;-56
2024/04/04 11:47:41;;;;;;;1.40;0.70;;;;;;;18.28;41.44;98664.45;239098;180;153622;-55
2024/04/04 11:52:44;;;;;;;1.50;0.90;;;;;;;18.15;42.24;98663.92;238938;180;137995;-54
2024/04/04 11:57:47;;;;;;;1.80;0.80;;;;;;;18.10;42.03;98668.30;238915;180;140129;-54
2024/04/04 12:02:51;;;;;;;1.40;0.70;;;;;;;18.03;42.46;98668.52;239005;180;153977;-53
2024/04/04 12:07:54;;;;;;;1.80;0.80;;;;;;;18.00;42.91;98664.00;238880;180;138129;-55
2024/04/04 12:12:57;;;;;;;0.80;0.70;;;;;;;18.04;43.12;98665.55;238955;180;137667;-54
2024/04/04 12:23:21;;;;;;;1.60;1.00;;;;;;;17.96;43.47;98668.52;238827;180;137413;-53
2024/04/04 12:28:25;;;;;;;1.30;0.90;;;;;;;17.83;43.71;98673.38;238847;180;137683;-54
2024/04/04 12:33:28;;;;;;;1.50;0.70;;;;;;;17.75;43.67;98668.34;238823;180;153037;-55
2024/04/04 12:38:31;;;;;;;2.70;0.80;;;;;;;17.73;43.90;98671.80;238792;180;137938;-53
2024/04/04 12:43:34;;;;;;;1.10;0.50;;;;;;;17.78;44.15;98670.45;238913;180;139431;-55
2024/04/04 12:48:37;;;;;;;1.30;0.70;;;;;;;17.80;44.02;98669.04;238882;177;153133;-54
2024/04/04 12:53:40;;;;;;;0.70;0.70;;;;;;;17.76;44.33;98675.80;238992;180;137347;-53
2024/04/04 12:58:43;;;;;;;2.30;0.80;;;;;;;17.76;44.78;98676.38;238904;180;138099;-54
2024/04/04 13:03:46;;;;;;;3.60;0.80;;;;;;;17.68;45.16;98672.40;238845;177;152982;-53
2024/04/04 13:08:50;;;;;;;1.50;0.70;;;;;;;17.65;45.25;98671.98;238958;180;137696;-53
2024/04/04 13:13:53;;;;;;;2.30;0.80;;;;;;;17.63;45.37;98670.24;238956;172;138686;-52
2024/04/04 13:18:56;;;;;;;1.30;0.70;;;;;;;17.52;45.46;98671.66;238956;180;153598;-56
2024/04/04 13:23:59;;;;;;;2.20;0.70;;;;;;;17.43;45.70;98670.05;238884;180;137997;-55
2024/04/04 13:29:02;;;;;;;2.10;0.80;;;;;;;17.36;46.05;98665.86;238910;180;137319;-54
2024/04/04 13:34:05;;;;;;;2.10;1.00;;;;;;;17.35;46.15;98662.75;239048;180;153831;-54
2024/04/04 13:39:13;;;;;;;3.20;1.00;;;;;;;17.39;46.28;98661.33;238827;180;274303;-55
2024/04/04 13:44:19;;;;;;;1.60;0.80;;;;;;;17.53;46.71;98652.70;238938;180;138891;-55
2024/04/04 13:49:22;;;;;;;2.00;1.00;;;;;;;17.64;46.48;98656.27;238908;180;153227;-55
2024/04/04 13:54:25;;;;;;;4.10;1.00;;;;;;;17.78;46.21;98656.04;238928;180;139001;-54
2024/04/04 13:59:28;;;;;;;3.40;0.80;;;;;;;17.85;46.45;98653.23;239069;180;137862;-54
2024/04/04 14:04:31;;;;;;;1.10;0.70;;;;;;;17.85;46.41;98655.37;238968;180;153111;-56
2024/04/04 14:09:35;;;;;;;2.00;0.50;;;;;;;17.78;46.08;98648.33;238955;180;137337;-55
2024/04/04 14:14:38;;;;;;;2.70;0.60;;;;;;;17.82;46.43;98645.64;238990;180;138872;-56
2024/04/04 14:19:40;;;;;;;108.10;87.10;;;;;;;17.89;46.63;98647.24;238905;180;153241;-56
2024/04/04 14:24:44;;;;;;;3.90;1.80;;;;;;;17.94;46.22;98649.88;238910;180;139780;-54
2024/04/04 14:29:47;;;;;;;2.50;1.10;;;;;;;17.84;46.21;98646.90;239018;180;137685;-53
2024/04/04 14:34:50;;;;;;;1.20;0.70;;;;;;;17.74;46.57;98643.00;238994;180;154239;-55
2024/04/04 14:39:53;;;;;;;2.60;1.00;;;;;;;17.63;46.94;98643.48;238927;180;137521;-55
2024/04/04 14:44:56;;;;;;;2.00;0.90;;;;;;;17.56;47.55;98644.05;238921;180;137483;-56
2024/04/04 14:50:00;;;;;;;4.00;1.10;;;;;;;17.54;47.92;98646.52;238967;172;152852;-56
2024/04/04 14:55:04;;;;;;;3.70;0.90;;;;;;;17.55;47.88;98641.82;239039;180;142118;-56
2024/04/04 15:00:08;;;;;;;3.00;1.10;;;;;;;17.59;47.91;98644.27;239134;180;139032;-56
2024/04/04 15:05:12;;;;;;;2.90;0.90;;;;;;;17.63;47.84;98642.80;238949;180;155729;-56
2024/04/04 15:10:15;;;;;;;3.30;1.20;;;;;;;17.62;47.65;98631.11;238944;180;138172;-56
2024/04/04 15:15:18;;;;;;;2.80;1.40;;;;;;;17.65;47.73;98625.71;238979;177;138828;-56
2024/04/04 15:20:21;;;;;;;1.60;1.00;;;;;;;17.73;47.48;98622.25;238923;180;152940;-57
2024/04/04 15:25:26;;;;;;;50.90;42.60;;;;;;;17.74;47.58;98611.55;238939;180;137073;-54
2024/04/04 15:30:32;;;;;;;3.10;1.80;;;;;;;17.84;47.46;98621.41;238952;180;141203;-57
2024/04/04 15:35:38;;;;;;;2.60;1.30;;;;;;;17.88;46.81;98624.78;238981;177;153623;-56
2024/04/04 15:40:42;;;;;;;1.50;0.90;;;;;;;17.88;46.67;98632.08;238971;180;138360;-57
2024/04/04 15:45:45;;;;;;;2.30;1.40;;;;;;;17.80;46.69;98634.55;238968;177;138063;-57
2024/04/04 15:50:48;;;;;;;2.70;0.90;;;;;;;17.73;46.74;98631.70;238970;180;153210;-57
2024/04/04 15:55:53;;;;;;;2.10;1.20;;;;;;;17.72;46.62;98630.94;238961;180;142343;-55
2024/04/04 16:00:56;;;;;;;40.00;36.00;;;;;;;17.62;46.70;98637.14;239001;177;137380;-56
2024/04/04 16:05:59;;;;;;;4.20;2.00;;;;;;;17.53;46.71;98632.79;238993;180;153032;-57
2024/04/04 16:11:03;;;;;;;2.10;1.30;;;;;;;17.49;46.94;98630.16;238988;176;151439;-55
2024/04/04 16:16:08;;;;;;;2.50;1.30;;;;;;;17.43;47.21;98632.88;239033;180;138267;-55
2024/04/04 16:21:11;;;;;;;2.00;1.40;;;;;;;17.36;47.51;98634.11;239035;180;154539;-56
2024/04/04 16:26:14;;;;;;;5.50;1.20;;;;;;;17.32;47.58;98638.64;239020;180;139706;-58
2024/04/04 16:31:17;;;;;;;83.70;74.80;;;;;;;17.29;47.76;98640.35;238937;180;138098;-57
2024/04/04 16:36:21;;;;;;;54.80;46.50;;;;;;;17.33;48.21;98636.80;239068;180;154032;-57
2024/04/04 16:41:24;;;;;;;4.00;2.40;;;;;;;17.38;47.94;98637.33;238994;180;137741;-57
2024/04/04 16:46:29;;;;;;;4.40;3.20;;;;;;;17.41;47.58;98638.63;239001;180;139122;-56
2024/04/04 16:51:32;;;;;;;3.40;1.40;;;;;;;17.42;47.16;98636.81;239016;180;153083;-57
2024/04/04 16:56:35;;;;;;;90.90;75.50;;;;;;;17.45;47.16;98640.04;238959;180;137673;-58
2024/04/04 17:01:38;;;;;;;15.70;9.70;;;;;;;17.45;47.21;98635.23;239111;180;137372;-57
2024/04/04 17:06:45;;;;;;;5.00;1.80;;;;;;;17.41;47.29;98637.98;239033;177;154691;-57
2024/04/04 17:11:49;;;;;;;3.80;1.40;;;;;;;17.38;47.34;98639.68;239015;180;137670;-57
2024/04/04 17:16:52;;;;;;;5.30;2.10;;;;;;;17.37;47.35;98634.90;239043;177;138073;-57
2024/04/04 17:21:55;;;;;;;7.20;1.90;;;;;;;17.31;47.48;98632.09;239071;180;153257;-56
2024/04/04 17:26:58;;;;;;;4.40;1.70;;;;;;;17.25;47.59;98628.88;239076;177;137391;-56
2024/04/04 17:32:01;;;;;;;4.40;1.80;;;;;;;17.20;47.57;98630.34;238908;180;254988;-56
2024/04/04 17:37:05;;;;;;;3.60;1.70;;;;;;;17.15;47.66;98633.98;238987;180;154757;-56
2024/04/04 17:42:08;;;;;;;12.60;2.10;;;;;;;17.07;47.73;98634.02;239013;180;139154;-57
2024/04/04 17:47:11;;;;;;;4.70;1.90;;;;;;;17.02;48.28;98639.16;239036;177;138200;-58
2024/04/04 17:52:16;;;;;;;9.30;2.10;;;;;;;16.93;48.84;98645.72;239023;180;153127;-57
2024/04/04 17:57:20;;;;;;;9.70;2.20;;;;;;;16.74;49.63;98648.42;238971;179;137651;-58
2024/04/04 18:02:24;;;;;;;6.20;2.60;;;;;;;16.61;50.40;98651.23;238984;180;137407;-58
2024/04/04 18:07:27;;;;;;;10.30;3.30;;;;;;;16.61;49.66;98653.34;239052;180;154268;-63
2024/04/04 18:12:30;;;;;;;12.30;4.10;;;;;;;16.66;49.47;98650.55;239001;177;137912;-59
2024/04/04 18:17:33;;;;;;;7.00;3.40;;;;;;;16.66;49.07;98651.31;239050;180;138305;-58
2024/04/04 18:22:36;;;;;;;7.50;3.70;;;;;;;16.62;49.05;98652.59;238982;180;153347;-56
2024/04/04 18:27:39;;;;;;;6.40;3.60;;;;;;;16.58;49.09;98648.27;239015;180;137838;-58
2024/04/04 18:32:42;;;;;;;86.50;71.10;;;;;;;16.57;48.86;98654.29;238932;180;137934;-57
2024/04/04 18:37:44;;;;;;;14.90;6.00;;;;;;;16.56;49.12;98648.69;238973;176;153030;-58
2024/04/04 18:42:50;;;;;;;8.90;3.60;;;;;;;16.49;48.96;98653.27;238988;180;138072;-57
2024/04/04 18:47:53;;;;;;;6.40;3.40;;;;;;;16.40;49.09;98653.73;239031;180;138225;-56
2024/04/04 18:52:56;;;;;;;8.20;4.00;;;;;;;16.36;49.17;98655.67;239104;180;154549;-58
2024/04/04 18:57:59;;;;;;;11.40;3.80;;;;;;;16.31;49.25;98657.17;238915;178;137903;-58
2024/04/04 19:03:03;;;;;;;9.40;4.10;;;;;;;16.27;49.27;98660.30;239035;180;137878;-56
2024/04/04 19:08:08;;;;;;;6.20;3.30;;;;;;;16.20;49.35;98663.61;239029;180;152872;-58
2024/04/04 19:13:11;;;;;;;5.00;3.00;;;;;;;16.13;49.38;98657.50;238973;180;137976;-58
2024/04/04 19:18:15;;;;;;;269.20;235.90;;;;;;;16.07;49.97;98657.41;239057;176;138607;-56
2024/04/04 19:23:18;;;;;;;14.40;9.20;;;;;;;16.07;50.38;98652.58;239041;180;154173;-59
2024/04/04 19:28:22;;;;;;;6.70;4.20;;;;;;;16.04;50.87;98656.08;239083;180;138045;-58
2024/04/04 19:33:27;;;;;;;7.90;4.30;;;;;;;15.98;51.32;98652.20;239010;180;138311;-59
2024/04/04 19:38:30;;;;;;;6.90;3.80;;;;;;;15.93;51.58;98655.75;239074;176;153231;-58
2024/04/04 19:43:36;;;;;;;5.80;3.30;;;;;;;15.90;50.63;98661.17;238984;180;137600;-56
2024/04/04 19:48:39;;;;;;;8.20;3.60;;;;;;;15.93;50.22;98665.02;239110;172;137894;-57
2024/04/04 19:53:42;;;;;;;7.70;3.20;;;;;;;15.99;50.09;98674.29;239015;180;153217;-58
2024/04/04 19:58:45;;;;;;;8.30;3.60;;;;;;;16.04;49.83;98691.71;238976;177;139874;-53
2024/04/04 20:03:48;;;;;;;7.50;3.60;;;;;;;16.05;50.25;98707.33;239088;180;138153;-58
2024/04/04 20:08:51;;;;;;;10.80;6.60;;;;;;;16.03;51.22;98723.15;239008;180;153111;-57
2024/04/04 20:13:55;;;;;;;9.30;5.00;;;;;;;15.92;52.34;98733.58;239008;180;137319;-59
2024/04/04 20:18:58;;;;;;;10.10;5.40;;;;;;;15.87;53.52;98729.79;239094;180;137237;-57
2024/04/04 20:24:01;;;;;;;9.90;5.60;;;;;;;15.81;54.61;98722.81;239086;180;153414;-56
2024/04/04 20:29:04;;;;;;;12.80;6.30;;;;;;;15.69;55.68;98715.44;238984;180;137326;-58
2024/04/04 20:34:07;;;;;;;11.10;6.60;;;;;;;15.58;56.74;98729.58;239045;180;138093;-58
2024/04/04 20:39:13;;;;;;;14.60;6.60;;;;;;;15.47;57.70;98730.77;239028;180;153953;-58
2024/04/04 20:44:16;;;;;;;9.70;6.00;;;;;;;15.34;58.79;98721.35;239031;180;137764;-59
2024/04/04 20:49:19;;;;;;;9.70;5.70;;;;;;;15.19;59.78;98707.61;239037;179;137608;-58
2024/04/04 20:54:23;;;;;;;9.40;5.90;;;;;;;15.07;60.50;98710.41;239050;180;153017;-56
2024/04/04 20:59:25;;;;;;;9.50;5.50;;;;;;;14.97;61.25;98710.89;239025;179;137852;-58
2024/04/04 21:04:28;;;;;;;9.40;5.00;;;;;;;14.96;61.65;98721.95;239060;172;138085;-57
2024/04/04 21:09:31;;;;;;;9.20;5.40;;;;;;;14.97;61.90;98722.37;238950;180;153184;-54
2024/04/04 21:14:35;;;;;;;8.60;5.70;;;;;;;14.98;62.30;98716.02;239136;180;138948;-57
2024/04/04 21:19:38;;;;;;;9.70;5.70;;;;;;;14.88;62.71;98714.88;239029;177;138728;-58
2024/04/04 21:24:57;;;;;;;9.80;5.60;;;;;;;14.85;62.91;98718.71;239004;180;153153;-58
2024/04/04 21:30:00;;;;;;;9.20;5.60;;;;;;;14.84;63.11;98707.70;238957;179;136915;-58
2024/04/04 21:35:03;;;;;;;11.50;7.40;;;;;;;14.73;63.54;98703.16;239106;180;138225;-59
2024/04/04 21:40:07;;;;;;;8.50;5.60;;;;;;;14.67;63.93;98698.30;239042;180;152958;-57
2024/04/04 21:45:10;;;;;;;8.20;5.20;;;;;;;14.63;64.44;98701.13;238984;180;137332;-59
2024/04/04 21:50:13;;;;;;;8.70;4.40;;;;;;;14.61;64.63;98702.89;239031;180;137038;-59
2024/04/04 21:55:16;;;;;;;8.40;4.20;;;;;;;14.59;64.73;98698.95;238983;180;154181;-59
2024/04/04 22:00:30;;;;;;;5.70;3.80;;;;;;;14.57;64.98;98697.89;239007;180;143482;-58
2024/04/04 22:05:33;;;;;;;5.80;3.60;;;;;;;14.62;65.20;98693.75;239003;180;138584;-59
2024/04/04 22:10:36;;;;;;;6.20;3.60;;;;;;;14.67;65.11;98698.80;238986;180;153239;-57
2024/04/04 22:15:41;;;;;;;6.60;3.40;;;;;;;14.68;65.20;98701.78;238978;173;137916;-58
2024/04/04 22:20:45;;;;;;;5.20;3.40;;;;;;;14.68;65.22;98714.64;239022;180;138145;-58
2024/04/04 22:25:48;;;;;;;5.60;3.50;;;;;;;14.69;65.35;98726.20;238929;180;153192;-59
2024/04/04 22:30:54;;;;;;;4.40;3.20;;;;;;;14.70;65.77;98737.38;238998;180;138432;-59
2024/04/04 22:35:57;;;;;;;3.50;2.40;;;;;;;14.73;65.85;98743.84;239076;180;137942;-59
2024/04/04 22:41:00;;;;;;;3.70;2.30;;;;;;;14.73;65.94;98745.48;238715;180;153500;-57
2024/04/04 22:46:03;;;;;;;3.90;1.80;;;;;;;14.71;65.98;98749.59;239039;180;138185;-60
2024/04/04 22:51:06;;;;;;;3.00;2.00;;;;;;;14.66;66.07;98753.17;238934;180;136916;-59
2024/04/04 22:56:09;;;;;;;4.10;2.30;;;;;;;14.62;66.29;98751.60;238953;180;154443;-59
2024/04/04 23:01:12;;;;;;;3.80;1.90;;;;;;;14.56;66.69;98752.27;239003;180;137384;-59
2024/04/04 23:06:15;;;;;;;3.80;1.70;;;;;;;14.53;67.18;98754.27;239068;180;140002;-57
2024/04/04 23:11:18;;;;;;;3.50;2.00;;;;;;;14.58;67.40;98748.13;239053;180;153069;-59
2024/04/04 23:16:21;;;;;;;3.10;1.70;;;;;;;14.56;67.82;98745.29;239003;180;137420;-57
2024/04/04 23:21:24;;;;;;;3.40;2.00;;;;;;;14.51;67.96;98737.84;239073;180;137909;-59
2024/04/04 23:26:27;;;;;;;3.80;1.60;;;;;;;14.47;68.29;98722.12;239027;180;153190;-57
2024/04/04 23:31:29;;;;;;;3.20;1.60;;;;;;;14.41;68.42;98710.80;239020;180;138055;-59